Time;durP1;ratioP1;P1;durP2;ratioP2;P2;SDS_P1;SDS_P2;PMS_P1;PMS_P2;Temp;Humidity;BMP_temperature;BMP_pressure;BME280_temperature;BME280_humidity;BME280_pressure;Samples;Min_cycle;Max_cycle;Signal;HPM_P1;HPM_P2
2023/05/13 00:01:24;;;;;;;;;;;;;;;;;;7364408;19;809;-63
2023/05/13 00:03:52;;;;;;;;;;;;;;;;;;7364318;19;1845;-64
2023/05/13 00:06:20;;;;;;;;;;;;;;;;;;7362744;19;1282;-63
2023/05/13 00:08:48;;;;;;;;;;;;;;;;;;7364869;19;817;-63
2023/05/13 00:11:16;;;;;;;;;;;;;;;;;;7369535;19;1805;-63
2023/05/13 00:13:44;;;;;;;;;;;;;;;;;;7366327;19;1808;-62
2023/05/13 00:16:12;;;;;;;;;;;;;;;;;;7362327;19;1279;-63
2023/05/13 00:18:41;;;;;;;;;;;;;;;;;;7363878;19;868;-63
2023/05/13 00:21:09;;;;;;;;;;;;;;;;;;7365035;19;866;-63
2023/05/13 00:23:37;;;;;;;;;;;;;;;;;;7365294;19;1849;-64
2023/05/13 00:26:05;;;;;;;;;;;;;;;;;;7362676;19;1318;-63
2023/05/13 00:28:33;;;;;;;;;;;;;;;;;;7363865;19;815;-62
2023/05/13 00:31:02;;;;;;;;;;;;;;;;;;7363502;19;756;-64
2023/05/13 00:33:30;;;;;;;;;;;;;;;;;;7365451;19;1580;-60
2023/05/13 00:35:58;;;;;;;;;;;;;;;;;;7360580;19;1302;-63
2023/05/13 00:38:26;;;;;;;;;;;;;;;;;;7361833;19;787;-65
2023/05/13 00:40:54;;;;;;;;;;;;;;;;;;7365910;19;1798;-65
2023/05/13 00:43:23;;;;;;;;;;;;;;;;;;7360857;19;1837;-63
2023/05/13 00:45:51;;;;;;;;;;;;;;;;;;7360773;19;1291;-63
2023/05/13 00:48:19;;;;;;;;;;;;;;;;;;7362619;19;858;-62
2023/05/13 00:50:47;;;;;;;;;;;;;;;;;;7362544;19;1789;-63
2023/05/13 00:53:15;;;;;;;;;;;;;;;;;;7365304;19;1846;-63
2023/05/13 00:55:44;;;;;;;;;;;;;;;;;;7361270;19;1340;-62
2023/05/13 00:58:13;;;;;;;;;;;;;;;;;;7362109;19;794;-58
2023/05/13 01:00:42;;;;;;;;;;;;;;;;;;7369601;19;814;-63
2023/05/13 01:03:10;;;;;;;;;;;;;;;;;;7368846;19;1854;-62
2023/05/13 01:05:38;;;;;;;;;;;;;;;;;;7368614;19;1348;-63
2023/05/13 01:08:06;;;;;;;;;;;;;;;;;;7370716;19;1846;-59
2023/05/13 01:10:34;;;;;;;;;;;;;;;;;;7368903;19;843;-60
2023/05/13 01:13:03;;;;;;;;;;;;;;;;;;7369705;19;2107;-62
2023/05/13 01:15:31;;;;;;;;;;;;;;;;;;7369425;19;1350;-61
2023/05/13 01:18:02;;;;;;;;;;;;;;;;;;7364485;19;1035;-64
2023/05/13 01:20:30;;;;;;;;;;;;;;;;;;7369299;19;809;-61
2023/05/13 01:22:59;;;;;;;;;;;;;;;;;;7366901;19;1845;-60
2023/05/13 01:25:27;;;;;;;;;;;;;;;;;;7367189;19;1275;-62
2023/05/13 01:27:55;;;;;;;;;;;;;;;;;;7367773;19;1818;-61
2023/05/13 01:30:23;;;;;;;;;;;;;;;;;;7370905;19;1860;-60
2023/05/13 01:32:51;;;;;;;;;;;;;;;;;;7368284;19;1759;-62
2023/05/13 01:35:20;;;;;;;;;;;;;;;;;;7367591;19;1855;-62
2023/05/13 01:37:49;;;;;;;;;;;;;;;;;;7370915;19;1773;-62
2023/05/13 01:40:17;;;;;;;;;;;;;;;;;;7368750;19;870;-63
2023/05/13 01:42:45;;;;;;;;;;;;;;;;;;7368629;19;1869;-62
2023/05/13 01:45:14;;;;;;;;;;;;;;;;;;7369318;19;1324;-62
2023/05/13 01:47:42;;;;;;;;;;;;;;;;;;7372074;19;1578;-64
2023/05/13 01:50:10;;;;;;;;;;;;;;;;;;7371883;19;822;-63
2023/05/13 01:52:38;;;;;;;;;;;;;;;;;;7372404;19;761;-65
2023/05/13 01:55:07;;;;;;;;;;;;;;;;;;7368247;19;1333;-63
2023/05/13 01:57:35;;;;;;;;;;;;;;;;;;7370127;19;1834;-64
2023/05/13 02:00:04;;;;;;;;;;;;;;;;;;7367674;19;803;-63
2023/05/13 02:02:42;;;;;;;;;;;;;;;;;;7368191;19;1852;-63
2023/05/13 02:05:10;;;;;;;;;;;;;;;;;;7370592;19;1823;-62
2023/05/13 02:07:39;;;;;;;;;;;;;;;;;;7368466;19;1835;-65
2023/05/13 02:10:07;;;;;;;;;;;;;;;;;;7366772;19;804;-65
2023/05/13 02:12:35;;;;;;;;;;;;;;;;;;7365966;19;808;-65
2023/05/13 02:15:05;;;;;;;;;;;;;;;;;;7367460;19;1317;-66
2023/05/13 02:17:33;;;;;;;;;;;;;;;;;;7367690;19;1815;-66
2023/05/13 02:20:01;;;;;;;;;;;;;;;;;;7366242;19;803;-64
2023/05/13 02:22:29;;;;;;;;;;;;;;;;;;7367077;19;1842;-64
2023/05/13 02:24:57;;;;;;;;;;;;;;;;;;7367912;19;1366;-64
2023/05/13 02:27:25;;;;;;;;;;;;;;;;;;7368984;19;1771;-64
2023/05/13 02:29:54;;;;;;;;;;;;;;;;;;7367139;19;817;-65
2023/05/13 02:32:22;;;;;;;;;;;;;;;;;;7368868;19;1796;-65
2023/05/13 02:34:50;;;;;;;;;;;;;;;;;;7366022;19;1280;-66
2023/05/13 02:37:18;;;;;;;;;;;;;;;;;;7369208;19;2040;-66
2023/05/13 02:39:54;;;;;;;;;;;;;;;;;;7368419;19;1709;-66
2023/05/13 02:42:23;;;;;;;;;;;;;;;;;;7368015;19;2062;-65
2023/05/13 02:44:51;;;;;;;;;;;;;;;;;;7363275;19;1850;-66
2023/05/13 02:47:19;;;;;;;;;;;;;;;;;;7367582;19;1584;-66
2023/05/13 02:49:47;;;;;;;;;;;;;;;;;;7365317;19;787;-66
2023/05/13 02:52:15;;;;;;;;;;;;;;;;;;7368252;19;809;-66
2023/05/13 02:54:43;;;;;;;;;;;;;;;;;;7367169;19;1342;-66
2023/05/13 02:57:12;;;;;;;;;;;;;;;;;;7366646;19;1828;-66
2023/05/13 02:59:40;;;;;;;;;;;;;;;;;;7364779;19;794;-66
2023/05/13 03:02:08;;;;;;;;;;;;;;;;;;7365344;19;890;-66
2023/05/13 03:04:36;;;;;;;;;;;;;;;;;;7363827;19;1845;-66
2023/05/13 03:07:04;;;;;;;;;;;;;;;;;;7366562;19;1813;-66
2023/05/13 03:09:33;;;;;;;;;;;;;;;;;;7365798;19;825;-64
2023/05/13 03:12:02;;;;;;;;;;;;;;;;;;7365247;19;784;-65
2023/05/13 03:14:30;;;;;;;;;;;;;;;;;;7370638;19;2071;-66
2023/05/13 03:16:58;;;;;;;;;;;;;;;;;;7362728;19;1623;-66
2023/05/13 03:19:26;;;;;;;;;;;;;;;;;;7364086;19;814;-66
2023/05/13 03:21:54;;;;;;;;;;;;;;;;;;7364077;19;820;-66
2023/05/13 03:24:22;;;;;;;;;;;;;;;;;;7362292;19;1852;-66
2023/05/13 03:26:51;;;;;;;;;;;;;;;;;;7365358;19;1938;-66
2023/05/13 03:29:19;;;;;;;;;;;;;;;;;;7363541;19;832;-66
2023/05/13 03:31:47;;;;;;;;;;;;;;;;;;7366032;19;885;-65
2023/05/13 03:34:15;;;;;;;;;;;;;;;;;;7364076;19;929;-65
2023/05/13 03:36:43;;;;;;;;;;;;;;;;;;7361658;19;1341;-64
2023/05/13 03:39:12;;;;;;;;;;;;;;;;;;7367719;19;1835;-65
2023/05/13 03:41:40;;;;;;;;;;;;;;;;;;7364675;19;739;-65
2023/05/13 03:44:08;;;;;;;;;;;;;;;;;;7362336;19;1854;-66
2023/05/13 03:46:37;;;;;;;;;;;;;;;;;;7364313;19;1827;-64
2023/05/13 03:49:05;;;;;;;;;;;;;;;;;;7366605;19;1466;-65
2023/05/13 03:51:33;;;;;;;;;;;;;;;;;;7363668;19;830;-66
2023/05/13 03:54:02;;;;;;;;;;;;;;;;;;7366198;19;2081;-65
2023/05/13 03:56:30;;;;;;;;;;;;;;;;;;7360790;19;1274;-66
2023/05/13 03:58:58;;;;;;;;;;;;;;;;;;7367082;19;1800;-65
2023/05/13 04:01:26;;;;;;;;;;;;;;;;;;7363269;19;811;-66
2023/05/13 04:03:55;;;;;;;;;;;;;;;;;;7363719;19;1862;-66
2023/05/13 04:06:23;;;;;;;;;;;;;;;;;;7361169;19;1283;-66
2023/05/13 04:08:51;;;;;;;;;;;;;;;;;;7366098;19;1798;-66
2023/05/13 04:11:19;;;;;;;;;;;;;;;;;;7363596;19;853;-66
2023/05/13 04:13:48;;;;;;;;;;;;;;;;;;7363412;19;764;-65
2023/05/13 04:16:17;;;;;;;;;;;;;;;;;;7362365;19;1286;-66
2023/05/13 04:18:45;;;;;;;;;;;;;;;;;;7366943;19;1785;-65
2023/05/13 04:21:13;;;;;;;;;;;;;;;;;;7364379;19;1840;-66
2023/05/13 04:23:41;;;;;;;;;;;;;;;;;;7361846;19;1845;-65
2023/05/13 04:26:09;;;;;;;;;;;;;;;;;;7362524;19;1274;-66
2023/05/13 04:28:38;;;;;;;;;;;;;;;;;;7365078;19;1856;-66
2023/05/13 04:31:06;;;;;;;;;;;;;;;;;;7364421;19;833;-66
2023/05/13 04:33:36;;;;;;;;;;;;;;;;;;7363219;19;747;-65
2023/05/13 04:36:04;;;;;;;;;;;;;;;;;;7369481;19;1276;-66
2023/05/13 04:38:33;;;;;;;;;;;;;;;;;;7372865;19;1821;-66
2023/05/13 04:41:01;;;;;;;;;;;;;;;;;;7370662;19;2068;-65
2023/05/13 04:43:35;;;;;;;;;;;;;;;;;;7368881;19;1856;-66
2023/05/13 04:46:03;;;;;;;;;;;;;;;;;;7367180;19;1333;-65
2023/05/13 04:48:32;;;;;;;;;;;;;;;;;;7368304;19;1542;-65
2023/05/13 04:51:00;;;;;;;;;;;;;;;;;;7370767;19;1708;-66
2023/05/13 04:53:28;;;;;;;;;;;;;;;;;;7368488;19;794;-66
2023/05/13 04:55:59;;;;;;;;;;;;;;;;;;7368869;19;1391;-66
2023/05/13 04:58:29;;;;;;;;;;;;;;;;;;7368246;19;878;-66
2023/05/13 05:00:57;;;;;;;;;;;;;;;;;;7369380;19;1813;-65
2023/05/13 05:03:25;;;;;;;;;;;;;;;;;;7368780;19;1853;-66
2023/05/13 05:05:54;;;;;;;;;;;;;;;;;;7366611;19;1298;-64
2023/05/13 05:08:23;;;;;;;;;;;;;;;;;;7367560;19;816;-65
2023/05/13 05:10:52;;;;;;;;;;;;;;;;;;7368568;19;1752;-65
2023/05/13 05:13:21;;;;;;;;;;;;;;;;;;7368522;19;805;-65
2023/05/13 05:15:49;;;;;;;;;;;;;;;;;;7366765;19;1335;-65
2023/05/13 05:18:17;;;;;;;;;;;;;;;;;;7370152;19;1831;-66
2023/05/13 05:20:49;;;;;;;;;;;;;;;;;;7368632;19;1775;-65
2023/05/13 05:23:19;;;;;;;;;;;;;;;;;;7367710;19;1841;-66
2023/05/13 05:25:47;;;;;;;;;;;;;;;;;;7367135;19;1354;-65
2023/05/13 05:28:15;;;;;;;;;;;;;;;;;;7368542;19;791;-66
2023/05/13 05:30:44;;;;;;;;;;;;;;;;;;7368249;19;753;-65
2023/05/13 05:33:24;;;;;;;;;;;;;;;;;;7368170;19;713;-64
2023/05/13 05:35:53;;;;;;;;;;;;;;;;;;7366325;19;1298;-65
2023/05/13 05:38:24;;;;;;;;;;;;;;;;;;7367798;19;1838;-67
2023/05/13 05:40:52;;;;;;;;;;;;;;;;;;7371017;19;1828;-66
2023/05/13 05:43:20;;;;;;;;;;;;;;;;;;7367627;19;863;-65
2023/05/13 05:45:48;;;;;;;;;;;;;;;;;;7369241;19;1825;-66
2023/05/13 05:48:19;;;;;;;;;;;;;;;;;;7366958;19;720;-65
2023/05/13 05:50:48;;;;;;;;;;;;;;;;;;7371663;19;981;-66
2023/05/13 05:53:21;;;;;;;;;;;;;;;;;;7367413;19;745;-66
2023/05/13 05:55:49;;;;;;;;;;;;;;;;;;7365985;19;1369;-65
2023/05/13 05:58:18;;;;;;;;;;;;;;;;;;7370083;19;835;-66
2023/05/13 06:00:46;;;;;;;;;;;;;;;;;;7369767;19;1685;-66
2023/05/13 06:03:14;;;;;;;;;;;;;;;;;;7368914;19;1792;-66
2023/05/13 06:05:42;;;;;;;;;;;;;;;;;;7364354;19;1849;-67
2023/05/13 06:08:10;;;;;;;;;;;;;;;;;;7369494;19;2060;-67
2023/05/13 06:10:39;;;;;;;;;;;;;;;;;;7369296;19;1814;-67
2023/05/13 06:13:08;;;;;;;;;;;;;;;;;;7365833;19;786;-65
2023/05/13 06:15:36;;;;;;;;;;;;;;;;;;7364032;19;1270;-65
2023/05/13 06:18:04;;;;;;;;;;;;;;;;;;7368064;19;810;-66
2023/05/13 06:20:35;;;;;;;;;;;;;;;;;;7366922;19;779;-67
2023/05/13 06:23:03;;;;;;;;;;;;;;;;;;7367868;19;785;-67
2023/05/13 06:25:31;;;;;;;;;;;;;;;;;;7364673;19;1853;-67
2023/05/13 06:27:59;;;;;;;;;;;;;;;;;;7366250;19;786;-67
2023/05/13 06:30:27;;;;;;;;;;;;;;;;;;7368280;19;817;-66
2023/05/13 06:32:56;;;;;;;;;;;;;;;;;;7368299;19;841;-66
2023/05/13 06:35:24;;;;;;;;;;;;;;;;;;7367107;19;1294;-65
2023/05/13 06:37:52;;;;;;;;;;;;;;;;;;7366015;19;792;-66
2023/05/13 06:40:21;;;;;;;;;;;;;;;;;;7366704;19;987;-66
2023/05/13 06:42:49;;;;;;;;;;;;;;;;;;7366131;19;826;-67
2023/05/13 06:45:24;;;;;;;;;;;;;;;;;;7365414;19;1846;-65
2023/05/13 06:47:53;;;;;;;;;;;;;;;;;;7366021;19;776;-66
2023/05/13 06:50:21;;;;;;;;;;;;;;;;;;7367009;19;882;-65
2023/05/13 06:52:49;;;;;;;;;;;;;;;;;;7366337;19;848;-65
2023/05/13 06:55:18;;;;;;;;;;;;;;;;;;7368139;19;2103;-65
2023/05/13 06:57:46;;;;;;;;;;;;;;;;;;7367859;19;1775;-67
2023/05/13 07:00:14;;;;;;;;;;;;;;;;;;7367648;19;783;-67
2023/05/13 07:02:43;;;;;;;;;;;;;;;;;;7366824;19;859;-67
2023/05/13 07:05:11;;;;;;;;;;;;;;;;;;7364974;19;1834;-67
2023/05/13 07:07:39;;;;;;;;;;;;;;;;;;7366264;19;815;-66
2023/05/13 07:10:07;;;;;;;;;;;;;;;;;;7366420;19;822;-64
2023/05/13 07:12:35;;;;;;;;;;;;;;;;;;7366682;19;790;-65
2023/05/13 07:15:03;;;;;;;;;;;;;;;;;;7365047;19;1353;-65
2023/05/13 07:17:32;;;;;;;;;;;;;;;;;;7366461;19;884;-63
2023/05/13 07:20:00;;;;;;;;;;;;;;;;;;7366504;19;826;-67
2023/05/13 07:22:28;;;;;;;;;;;;;;;;;;7366856;19;837;-67
2023/05/13 07:24:56;;;;;;;;;;;;;;;;;;7364641;19;2079;-66
2023/05/13 07:27:25;;;;;;;;;;;;;;;;;;7366660;19;845;-66
2023/05/13 07:29:53;;;;;;;;;;;;;;;;;;7365492;19;810;-66
2023/05/13 07:32:21;;;;;;;;;;;;;;;;;;7366545;19;802;-68
2023/05/13 07:34:50;;;;;;;;;;;;;;;;;;7366572;19;1269;-67
2023/05/13 07:37:18;;;;;;;;;;;;;;;;;;7365063;19;808;-65
2023/05/13 07:39:46;;;;;;;;;;;;;;;;;;7368790;19;1788;-64
2023/05/13 07:42:14;;;;;;;;;;;;;;;;;;7363969;19;850;-65
2023/05/13 07:44:42;;;;;;;;;;;;;;;;;;7364157;19;1837;-63
2023/05/13 07:47:11;;;;;;;;;;;;;;;;;;7365184;19;807;-65
2023/05/13 07:49:39;;;;;;;;;;;;;;;;;;7365196;19;845;-67
2023/05/13 07:52:07;;;;;;;;;;;;;;;;;;7365167;19;822;-67
2023/05/13 07:54:35;;;;;;;;;;;;;;;;;;7364876;19;850;-66
2023/05/13 07:57:03;;;;;;;;;;;;;;;;;;7364858;19;848;-66
2023/05/13 07:59:32;;;;;;;;;;;;;;;;;;7364808;19;861;-66
2023/05/13 08:02:00;;;;;;;;;;;;;;;;;;7365703;19;814;-67
2023/05/13 08:04:28;;;;;;;;;;;;;;;;;;7365022;19;1844;-67
2023/05/13 08:06:56;;;;;;;;;;;;;;;;;;7362179;19;1229;-67
2023/05/13 08:09:24;;;;;;;;;;;;;;;;;;7366730;19;950;-67
2023/05/13 08:11:53;;;;;;;;;;;;;;;;;;7371954;19;795;-66
2023/05/13 08:14:21;;;;;;;;;;;;;;;;;;7371841;19;839;-64
2023/05/13 08:16:49;;;;;;;;;;;;;;;;;;7368590;19;1269;-65
2023/05/13 08:19:17;;;;;;;;;;;;;;;;;;7371259;19;846;-65
2023/05/13 08:21:45;;;;;;;;;;;;;;;;;;7370602;19;865;-65
2023/05/13 08:24:13;;;;;;;;;;;;;;;;;;7370493;19;1861;-65
2023/05/13 08:26:41;;;;;;;;;;;;;;;;;;7369175;19;1337;-66
2023/05/13 08:29:12;;;;;;;;;;;;;;;;;;7370822;19;810;-66
2023/05/13 08:31:41;;;;;;;;;;;;;;;;;;7371353;19;795;-67
2023/05/13 08:34:09;;;;;;;;;;;;;;;;;;7370921;19;869;-66
2023/05/13 08:36:37;;;;;;;;;;;;;;;;;;7369766;19;1306;-66
2023/05/13 08:39:06;;;;;;;;;;;;;;;;;;7369624;19;815;-67
2023/05/13 08:41:34;;;;;;;;;;;;;;;;;;7371230;19;790;-66
2023/05/13 08:44:02;;;;;;;;;;;;;;;;;;7371004;19;853;-67
2023/05/13 08:46:31;;;;;;;;;;;;;;;;;;7368233;19;1855;-67
2023/05/13 08:48:59;;;;;;;;;;;;;;;;;;7368769;19;868;-66
2023/05/13 08:51:27;;;;;;;;;;;;;;;;;;7371255;19;1232;-67
2023/05/13 08:53:55;;;;;;;;;;;;;;;;;;7370312;19;881;-67
2023/05/13 08:56:27;;;;;;;;;;;;;;;;;;7368833;19;1315;-67
2023/05/13 08:58:55;;;;;;;;;;;;;;;;;;7368814;19;766;-67
2023/05/13 09:01:23;;;;;;;;;;;;;;;;;;7368304;19;798;-67
2023/05/13 09:03:51;;;;;;;;;;;;;;;;;;7369973;19;790;-67
2023/05/13 09:06:19;;;;;;;;;;;;;;;;;;7367924;19;1850;-67
2023/05/13 09:08:47;;;;;;;;;;;;;;;;;;7370494;19;809;-66
2023/05/13 09:11:16;;;;;;;;;;;;;;;;;;7369471;19;831;-67
2023/05/13 09:13:44;;;;;;;;;;;;;;;;;;7368356;19;851;-66
2023/05/13 09:16:12;;;;;;;;;;;;;;;;;;7368167;19;1283;-66
2023/05/13 09:18:41;;;;;;;;;;;;;;;;;;7368999;19;823;-65
2023/05/13 09:21:09;;;;;;;;;;;;;;;;;;7368967;19;823;-65
2023/05/13 09:23:38;;;;;;;;;;;;;;;;;;7369798;19;825;-65
2023/05/13 09:26:06;;;;;;;;;;;;;;;;;;7367740;19;1846;-67
2023/05/13 09:28:34;;;;;;;;;;;;;;;;;;7369058;19;854;-66
2023/05/13 09:31:02;;;;;;;;;;;;;;;;;;7369049;19;803;-66
2023/05/13 09:33:31;;;;;;;;;;;;;;;;;;7369185;19;870;-67
2023/05/13 09:35:59;;;;;;;;;;;;;;;;;;7368285;19;1283;-65
2023/05/13 09:38:27;;;;;;;;;;;;;;;;;;7368662;19;818;-65
2023/05/13 09:40:55;;;;;;;;;;;;;;;;;;7368908;19;908;-66
2023/05/13 09:43:24;;;;;;;;;;;;;;;;;;7367926;19;856;-66
2023/05/13 09:45:52;;;;;;;;;;;;;;;;;;7367951;19;1849;-66
2023/05/13 09:48:20;;;;;;;;;;;;;;;;;;7367964;19;802;-66
2023/05/13 09:50:48;;;;;;;;;;;;;;;;;;7368699;19;1008;-68
2023/05/13 09:53:16;;;;;;;;;;;;;;;;;;7368368;19;848;-66
2023/05/13 09:55:45;;;;;;;;;;;;;;;;;;7367194;19;1299;-67
2023/05/13 09:58:13;;;;;;;;;;;;;;;;;;7367526;19;853;-67
2023/05/13 10:00:41;;;;;;;;;;;;;;;;;;7369702;19;825;-67
2023/05/13 10:03:10;;;;;;;;;;;;;;;;;;7369668;19;1583;-67
2023/05/13 10:05:38;;;;;;;;;;;;;;;;;;7369777;19;1846;-66
2023/05/13 10:08:06;;;;;;;;;;;;;;;;;;7369436;19;1676;-66
2023/05/13 10:10:34;;;;;;;;;;;;;;;;;;7370970;19;1685;-66
2023/05/13 10:13:02;;;;;;;;;;;;;;;;;;7370685;19;1802;-65
2023/05/13 10:15:31;;;;;;;;;;;;;;;;;;7367156;19;1275;-66
2023/05/13 10:17:59;;;;;;;;;;;;;;;;;;7368946;19;1713;-66
2023/05/13 10:20:27;;;;;;;;;;;;;;;;;;7370601;19;1817;-63
2023/05/13 10:22:55;;;;;;;;;;;;;;;;;;7367651;19;845;-65
2023/05/13 10:25:23;;;;;;;;;;;;;;;;;;7366285;19;1850;-65
2023/05/13 10:27:52;;;;;;;;;;;;;;;;;;7366663;19;815;-66
2023/05/13 10:30:25;;;;;;;;;;;;;;;;;;7370583;19;1776;-66
2023/05/13 10:32:53;;;;;;;;;;;;;;;;;;7364758;19;806;-65
2023/05/13 10:35:21;;;;;;;;;;;;;;;;;;7367060;19;1289;-65
2023/05/13 10:37:49;;;;;;;;;;;;;;;;;;7367307;19;820;-66
2023/05/13 10:40:17;;;;;;;;;;;;;;;;;;7367331;19;865;-66
2023/05/13 10:42:45;;;;;;;;;;;;;;;;;;7370099;19;1796;-66
2023/05/13 10:45:14;;;;;;;;;;;;;;;;;;7365759;19;1869;-66
2023/05/13 10:47:42;;;;;;;;;;;;;;;;;;7365916;19;827;-65
2023/05/13 10:50:10;;;;;;;;;;;;;;;;;;7366848;19;770;-66
2023/05/13 10:52:38;;;;;;;;;;;;;;;;;;7367147;19;1315;-66
2023/05/13 10:55:07;;;;;;;;;;;;;;;;;;7366357;19;1797;-65
2023/05/13 10:57:35;;;;;;;;;;;;;;;;;;7371859;19;1807;-66
2023/05/13 11:00:03;;;;;;;;;;;;;;;;;;7366239;19;899;-66
2023/05/13 11:02:31;;;;;;;;;;;;;;;;;;7367442;19;869;-65
2023/05/13 11:04:59;;;;;;;;;;;;;;;;;;7371257;19;1853;-66
2023/05/13 11:07:27;;;;;;;;;;;;;;;;;;7366467;19;773;-64
2023/05/13 11:09:56;;;;;;;;;;;;;;;;;;7367708;19;1602;-64
2023/05/13 11:12:24;;;;;;;;;;;;;;;;;;7367431;19;2100;-64
2023/05/13 11:14:52;;;;;;;;;;;;;;;;;;7366633;19;1281;-63
2023/05/13 11:17:20;;;;;;;;;;;;;;;;;;7368095;19;1786;-65
2023/05/13 11:19:48;;;;;;;;;;;;;;;;;;7365489;19;862;-65
2023/05/13 11:22:16;;;;;;;;;;;;;;;;;;7366534;19;865;-66
2023/05/13 11:24:44;;;;;;;;;;;;;;;;;;7365730;19;1356;-66
2023/05/13 11:27:12;;;;;;;;;;;;;;;;;;7365507;19;1834;-66
2023/05/13 11:29:41;;;;;;;;;;;;;;;;;;7367170;19;829;-65
2023/05/13 11:32:09;;;;;;;;;;;;;;;;;;7367104;19;799;-64
2023/05/13 11:34:37;;;;;;;;;;;;;;;;;;7367068;19;863;-63
2023/05/13 11:37:05;;;;;;;;;;;;;;;;;;7365987;19;824;-64
2023/05/13 11:39:33;;;;;;;;;;;;;;;;;;7366919;19;1822;-64
2023/05/13 11:42:02;;;;;;;;;;;;;;;;;;7371723;19;1592;-64
2023/05/13 11:44:30;;;;;;;;;;;;;;;;;;7366194;19;821;-65
2023/05/13 11:46:58;;;;;;;;;;;;;;;;;;7361354;19;1845;-65
2023/05/13 11:49:27;;;;;;;;;;;;;;;;;;7365272;19;801;-66
2023/05/13 11:51:57;;;;;;;;;;;;;;;;;;7365408;19;808;-64
2023/05/13 11:54:25;;;;;;;;;;;;;;;;;;7368185;19;1804;-65
2023/05/13 11:56:53;;;;;;;;;;;;;;;;;;7362290;19;1277;-64
2023/05/13 11:59:21;;;;;;;;;;;;;;;;;;7364793;19;783;-64
2023/05/13 12:01:49;;;;;;;;;;;;;;;;;;7364884;19;842;-65
2023/05/13 12:04:18;;;;;;;;;;;;;;;;;;7368695;19;1734;-65
2023/05/13 12:06:47;;;;;;;;;;;;;;;;;;7366032;19;1850;-65
2023/05/13 12:09:16;;;;;;;;;;;;;;;;;;7366914;19;1816;-65
2023/05/13 12:11:44;;;;;;;;;;;;;;;;;;7368471;19;1606;-63
2023/05/13 12:14:12;;;;;;;;;;;;;;;;;;7367062;19;1799;-64
2023/05/13 12:16:40;;;;;;;;;;;;;;;;;;7365658;19;1593;-64
2023/05/13 12:19:09;;;;;;;;;;;;;;;;;;7365317;19;1474;-65
2023/05/13 12:21:37;;;;;;;;;;;;;;;;;;7366698;19;1777;-64
2023/05/13 12:24:05;;;;;;;;;;;;;;;;;;7367700;19;1706;-65
2023/05/13 12:26:33;;;;;;;;;;;;;;;;;;7365297;19;1862;-65
2023/05/13 12:29:01;;;;;;;;;;;;;;;;;;7363959;19;855;-65
2023/05/13 12:31:29;;;;;;;;;;;;;;;;;;7367416;19;1833;-65
2023/05/13 12:33:58;;;;;;;;;;;;;;;;;;7363755;19;817;-65
2023/05/13 12:36:32;;;;;;;;;;;;;;;;;;7362190;19;1340;-65
2023/05/13 12:39:00;;;;;;;;;;;;;;;;;;7363608;19;727;-67
2023/05/13 12:41:28;;;;;;;;;;;;;;;;;;7365170;19;1844;-65
2023/05/13 12:43:56;;;;;;;;;;;;;;;;;;7367210;19;1811;-64
2023/05/13 12:46:24;;;;;;;;;;;;;;;;;;7361617;19;1845;-63
2023/05/13 12:48:52;;;;;;;;;;;;;;;;;;7366521;19;1796;-63
2023/05/13 12:51:21;;;;;;;;;;;;;;;;;;7362622;19;770;-63
2023/05/13 12:53:49;;;;;;;;;;;;;;;;;;7363400;19;799;-64
2023/05/13 12:56:17;;;;;;;;;;;;;;;;;;7370274;19;2036;-65
2023/05/13 12:58:45;;;;;;;;;;;;;;;;;;7368491;19;1827;-64
2023/05/13 13:01:14;;;;;;;;;;;;;;;;;;7372797;19;1763;-65
2023/05/13 13:03:42;;;;;;;;;;;;;;;;;;7369458;19;895;-64
2023/05/13 13:06:10;;;;;;;;;;;;;;;;;;7366415;19;1862;-64
2023/05/13 13:08:38;;;;;;;;;;;;;;;;;;7370937;19;1766;-64
2023/05/13 13:11:06;;;;;;;;;;;;;;;;;;7369248;19;800;-65
2023/05/13 13:13:34;;;;;;;;;;;;;;;;;;7369085;19;842;-65
2023/05/13 13:16:03;;;;;;;;;;;;;;;;;;7368431;19;1305;-64
2023/05/13 13:18:31;;;;;;;;;;;;;;;;;;7368860;19;868;-65
2023/05/13 13:20:59;;;;;;;;;;;;;;;;;;7368838;19;783;-65
2023/05/13 13:23:27;;;;;;;;;;;;;;;;;;7371940;19;1799;-64
2023/05/13 13:25:57;;;;;;;;;;;;;;;;;;7367084;19;1847;-65
2023/05/13 13:28:25;;;;;;;;;;;;;;;;;;7371836;19;1802;-64
2023/05/13 13:30:53;;;;;;;;;;;;;;;;;;7368972;19;879;-64
2023/05/13 13:33:21;;;;;;;;;;;;;;;;;;7368471;19;891;-64
2023/05/13 13:35:49;;;;;;;;;;;;;;;;;;7367506;19;1332;-65
2023/05/13 13:38:18;;;;;;;;;;;;;;;;;;7370781;19;1822;-65
2023/05/13 13:40:46;;;;;;;;;;;;;;;;;;7371992;19;1608;-65
2023/05/13 13:43:14;;;;;;;;;;;;;;;;;;7368472;19;825;-65
2023/05/13 13:45:42;;;;;;;;;;;;;;;;;;7371301;19;1803;-62
2023/05/13 13:48:10;;;;;;;;;;;;;;;;;;7365362;19;1849;-62
2023/05/13 13:50:38;;;;;;;;;;;;;;;;;;7367751;19;830;-63
2023/05/13 13:53:06;;;;;;;;;;;;;;;;;;7367713;19;891;-64
2023/05/13 13:55:34;;;;;;;;;;;;;;;;;;7367212;19;1284;-64
2023/05/13 13:58:03;;;;;;;;;;;;;;;;;;7371437;19;1623;-64
2023/05/13 14:00:31;;;;;;;;;;;;;;;;;;7367714;19;829;-64
2023/05/13 14:03:01;;;;;;;;;;;;;;;;;;7367533;19;718;-63
2023/05/13 14:05:29;;;;;;;;;;;;;;;;;;7366552;19;1325;-63
2023/05/13 14:07:57;;;;;;;;;;;;;;;;;;7364675;19;1861;-63
2023/05/13 14:10:25;;;;;;;;;;;;;;;;;;7368732;19;1837;-63
2023/05/13 14:12:53;;;;;;;;;;;;;;;;;;7371120;19;1362;-63
2023/05/13 14:15:23;;;;;;;;;;;;;;;;;;7369488;19;1811;-64
2023/05/13 14:17:51;;;;;;;;;;;;;;;;;;7370322;19;1842;-64
2023/05/13 14:20:20;;;;;;;;;;;;;;;;;;7370033;19;1773;-63
2023/05/13 14:22:48;;;;;;;;;;;;;;;;;;7372594;19;1779;-65
2023/05/13 14:25:16;;;;;;;;;;;;;;;;;;7368236;19;1774;-65
2023/05/13 14:27:44;;;;;;;;;;;;;;;;;;7364639;19;1825;-65
2023/05/13 14:30:13;;;;;;;;;;;;;;;;;;7369151;19;1773;-66
2023/05/13 14:32:41;;;;;;;;;;;;;;;;;;7369429;19;1806;-64
2023/05/13 14:35:09;;;;;;;;;;;;;;;;;;7368722;19;1780;-66
2023/05/13 14:37:37;;;;;;;;;;;;;;;;;;7369385;19;1753;-64
2023/05/13 14:40:05;;;;;;;;;;;;;;;;;;7370967;19;1782;-65
2023/05/13 14:42:33;;;;;;;;;;;;;;;;;;7367263;19;809;-65
2023/05/13 14:45:02;;;;;;;;;;;;;;;;;;7368515;19;1653;-63
2023/05/13 14:47:30;;;;;;;;;;;;;;;;;;7366144;19;1837;-63
2023/05/13 14:49:58;;;;;;;;;;;;;;;;;;7366803;19;810;-64
2023/05/13 14:52:26;;;;;;;;;;;;;;;;;;7368418;19;1590;-64
2023/05/13 14:54:54;;;;;;;;;;;;;;;;;;7366570;19;1831;-65
2023/05/13 14:57:23;;;;;;;;;;;;;;;;;;7368404;19;1784;-64
2023/05/13 14:59:51;;;;;;;;;;;;;;;;;;7366103;19;1844;-65
2023/05/13 15:02:19;;;;;;;;;;;;;;;;;;7369970;19;1817;-65
2023/05/13 15:04:47;;;;;;;;;;;;;;;;;;7370381;19;1805;-65
2023/05/13 15:07:15;;;;;;;;;;;;;;;;;;7368218;19;1818;-65
2023/05/13 15:09:43;;;;;;;;;;;;;;;;;;7365792;19;1809;-65
2023/05/13 15:12:11;;;;;;;;;;;;;;;;;;7369864;19;1810;-65
2023/05/13 15:14:39;;;;;;;;;;;;;;;;;;7370532;19;1811;-65
2023/05/13 15:17:10;;;;;;;;;;;;;;;;;;7368631;19;1742;-65
2023/05/13 15:19:38;;;;;;;;;;;;;;;;;;7368392;19;1836;-65
2023/05/13 15:22:06;;;;;;;;;;;;;;;;;;7366006;19;786;-65
2023/05/13 15:24:36;;;;;;;;;;;;;;;;;;7365432;19;819;-65
2023/05/13 15:27:04;;;;;;;;;;;;;;;;;;7363021;19;1861;-65
2023/05/13 15:29:33;;;;;;;;;;;;;;;;;;7365134;19;843;-64
2023/05/13 15:32:01;;;;;;;;;;;;;;;;;;7366186;19;810;-65
2023/05/13 15:34:29;;;;;;;;;;;;;;;;;;7365730;19;827;-66
2023/05/13 15:36:57;;;;;;;;;;;;;;;;;;7362219;19;1278;-65
2023/05/13 15:39:25;;;;;;;;;;;;;;;;;;7365906;19;1247;-65
2023/05/13 15:41:53;;;;;;;;;;;;;;;;;;7367980;19;1823;-65
2023/05/13 15:44:22;;;;;;;;;;;;;;;;;;7370055;19;1619;-64
2023/05/13 15:46:50;;;;;;;;;;;;;;;;;;7363253;19;1853;-65
2023/05/13 15:49:18;;;;;;;;;;;;;;;;;;7364074;19;833;-65
2023/05/13 15:51:46;;;;;;;;;;;;;;;;;;7368464;19;1379;-65
2023/05/13 15:54:14;;;;;;;;;;;;;;;;;;7368391;19;1786;-65
2023/05/13 15:56:42;;;;;;;;;;;;;;;;;;7366127;19;1782;-64
2023/05/13 15:59:11;;;;;;;;;;;;;;;;;;7365621;19;1799;-64
2023/05/13 16:01:40;;;;;;;;;;;;;;;;;;7367051;19;1788;-65
2023/05/13 16:04:08;;;;;;;;;;;;;;;;;;7365995;19;1812;-63
2023/05/13 16:06:36;;;;;;;;;;;;;;;;;;7364894;19;1842;-65
2023/05/13 16:09:04;;;;;;;;;;;;;;;;;;7364646;19;1608;-65
2023/05/13 16:11:33;;;;;;;;;;;;;;;;;;7367724;19;1814;-66
2023/05/13 16:14:01;;;;;;;;;;;;;;;;;;7367556;19;1816;-64
2023/05/13 16:16:29;;;;;;;;;;;;;;;;;;7365099;19;1517;-64
2023/05/13 16:18:57;;;;;;;;;;;;;;;;;;7366435;19;1661;-65
2023/05/13 16:21:25;;;;;;;;;;;;;;;;;;7366256;19;1146;-65
2023/05/13 16:23:53;;;;;;;;;;;;;;;;;;7366193;19;855;-65
2023/05/13 16:26:21;;;;;;;;;;;;;;;;;;7367526;19;1807;-64
2023/05/13 16:28:50;;;;;;;;;;;;;;;;;;7362940;19;1846;-65
2023/05/13 16:31:18;;;;;;;;;;;;;;;;;;7372071;19;1905;-64
2023/05/13 16:33:46;;;;;;;;;;;;;;;;;;7374000;19;1456;-64
2023/05/13 16:36:14;;;;;;;;;;;;;;;;;;7369956;19;1872;-65
2023/05/13 16:38:42;;;;;;;;;;;;;;;;;;7373508;19;1584;-63
2023/05/13 16:41:10;;;;;;;;;;;;;;;;;;7372644;19;1886;-65
2023/05/13 16:43:38;;;;;;;;;;;;;;;;;;7371851;19;1629;-65
2023/05/13 16:46:07;;;;;;;;;;;;;;;;;;7365518;19;1324;-65
2023/05/13 16:48:35;;;;;;;;;;;;;;;;;;7367833;19;1846;-65
2023/05/13 16:51:03;;;;;;;;;;;;;;;;;;7370349;19;821;-63
2023/05/13 16:53:31;;;;;;;;;;;;;;;;;;7370795;19;1226;-64
2023/05/13 16:55:59;;;;;;;;;;;;;;;;;;7368394;19;1355;-64
2023/05/13 16:58:28;;;;;;;;;;;;;;;;;;7368992;19;874;-64
2023/05/13 17:00:56;;;;;;;;;;;;;;;;;;7369603;19;818;-65
2023/05/13 17:03:24;;;;;;;;;;;;;;;;;;7369465;19;834;-65
2023/05/13 17:05:52;;;;;;;;;;;;;;;;;;7368435;19;1278;-62
2023/05/13 17:08:23;;;;;;;;;;;;;;;;;;7367021;19;2007;-65
2023/05/13 17:10:51;;;;;;;;;;;;;;;;;;7372802;19;1426;-65
2023/05/13 17:13:20;;;;;;;;;;;;;;;;;;7371166;19;1746;-64
2023/05/13 17:15:48;;;;;;;;;;;;;;;;;;7371516;19;1662;-64
2023/05/13 17:18:16;;;;;;;;;;;;;;;;;;7369971;19;1891;-63